sensor_id;sensor_type;location;lat;lon;timestamp;pressure;altitude;pressure_sealevel;temperature
42197;BMP280;27866;48.146;17.098;2023-12-14T00:01:08;98322.06;;;11.69
42197;BMP280;27866;48.146;17.098;2023-12-14T00:05:21;98319.88;;;11.65
42197;BMP280;27866;48.146;17.098;2023-12-14T00:09:33;98333.84;;;11.55
42197;BMP280;27866;48.146;17.098;2023-12-14T00:13:44;98330.47;;;11.45
42197;BMP280;27866;48.146;17.098;2023-12-14T00:17:56;98330.78;;;11.42
42197;BMP280;27866;48.146;17.098;2023-12-14T00:22:07;98331.06;;;11.39
42197;BMP280;27866;48.146;17.098;2023-12-14T00:26:19;98333.06;;;11.45
42197;BMP280;27866;48.146;17.098;2023-12-14T00:30:31;98342.78;;;11.43
42197;BMP280;27866;48.146;17.098;2023-12-14T00:34:42;98347.78;;;11.54
42197;BMP280;27866;48.146;17.098;2023-12-14T00:38:54;98346.50;;;11.67
42197;BMP280;27866;48.146;17.098;2023-12-14T00:43:06;98353.84;;;11.71
42197;BMP280;27866;48.146;17.098;2023-12-14T00:47:18;98357.78;;;11.75
42197;BMP280;27866;48.146;17.098;2023-12-14T00:51:30;98356.94;;;11.74
42197;BMP280;27866;48.146;17.098;2023-12-14T00:55:41;98349.31;;;11.73
42197;BMP280;27866;48.146;17.098;2023-12-14T00:59:53;98349.31;;;11.73
42197;BMP280;27866;48.146;17.098;2023-12-14T01:04:04;98356.13;;;11.74
42197;BMP280;27866;48.146;17.098;2023-12-14T01:08:16;98357.53;;;11.69
42197;BMP280;27866;48.146;17.098;2023-12-14T01:12:28;98357.84;;;11.57
42197;BMP280;27866;48.146;17.098;2023-12-14T01:16:39;98380.13;;;11.50
42197;BMP280;27866;48.146;17.098;2023-12-14T01:20:51;98382.75;;;11.41
42197;BMP280;27866;48.146;17.098;2023-12-14T01:25:02;98378.00;;;11.36
42197;BMP280;27866;48.146;17.098;2023-12-14T01:29:14;98381.41;;;11.37
42197;BMP280;27866;48.146;17.098;2023-12-14T01:33:25;98379.34;;;11.40
42197;BMP280;27866;48.146;17.098;2023-12-14T01:37:38;98382.59;;;11.42
42197;BMP280;27866;48.146;17.098;2023-12-14T01:41:50;98390.66;;;11.39
42197;BMP280;27866;48.146;17.098;2023-12-14T01:46:01;98397.34;;;11.42
42197;BMP280;27866;48.146;17.098;2023-12-14T01:50:13;98399.50;;;11.46
42197;BMP280;27866;48.146;17.098;2023-12-14T01:54:25;98400.72;;;11.51
42197;BMP280;27866;48.146;17.098;2023-12-14T01:58:36;98400.28;;;11.56
42197;BMP280;27866;48.146;17.098;2023-12-14T02:02:48;98406.16;;;11.58
42197;BMP280;27866;48.146;17.098;2023-12-14T02:07:00;98402.31;;;11.61
42197;BMP280;27866;48.146;17.098;2023-12-14T02:11:12;98416.75;;;11.64
42197;BMP280;27866;48.146;17.098;2023-12-14T02:15:24;98429.28;;;11.68
42197;BMP280;27866;48.146;17.098;2023-12-14T02:19:35;98438.00;;;11.76
42197;BMP280;27866;48.146;17.098;2023-12-14T02:23:47;98440.22;;;11.62
42197;BMP280;27866;48.146;17.098;2023-12-14T02:27:58;98448.47;;;11.49
42197;BMP280;27866;48.146;17.098;2023-12-14T02:32:10;98434.69;;;11.39
42197;BMP280;27866;48.146;17.098;2023-12-14T02:36:21;98438.94;;;11.40
42197;BMP280;27866;48.146;17.098;2023-12-14T02:40:33;98440.44;;;11.43
42197;BMP280;27866;48.146;17.098;2023-12-14T02:44:44;98433.63;;;11.42
42197;BMP280;27866;48.146;17.098;2023-12-14T02:48:56;98451.22;;;11.38
42197;BMP280;27866;48.146;17.098;2023-12-14T02:53:08;98448.25;;;11.33
42197;BMP280;27866;48.146;17.098;2023-12-14T02:57:19;98457.66;;;11.34
42197;BMP280;27866;48.146;17.098;2023-12-14T03:01:31;98454.09;;;11.26
42197;BMP280;27866;48.146;17.098;2023-12-14T03:05:43;98465.28;;;11.27
42197;BMP280;27866;48.146;17.098;2023-12-14T03:09:54;98464.34;;;11.28
42197;BMP280;27866;48.146;17.098;2023-12-14T03:14:06;98474.03;;;11.26
42197;BMP280;27866;48.146;17.098;2023-12-14T03:18:17;98464.63;;;11.25
42197;BMP280;27866;48.146;17.098;2023-12-14T03:22:29;98476.19;;;11.30
42197;BMP280;27866;48.146;17.098;2023-12-14T03:26:41;98479.34;;;11.33
42197;BMP280;27866;48.146;17.098;2023-12-14T03:30:53;98493.63;;;11.37
42197;BMP280;27866;48.146;17.098;2023-12-14T03:35:05;98494.09;;;11.24
42197;BMP280;27866;48.146;17.098;2023-12-14T03:39:16;98498.41;;;11.14
42197;BMP280;27866;48.146;17.098;2023-12-14T03:43:28;98499.09;;;11.07
42197;BMP280;27866;48.146;17.098;2023-12-14T03:47:40;98493.66;;;10.91
42197;BMP280;27866;48.146;17.098;2023-12-14T03:51:51;98495.13;;;10.85
42197;BMP280;27866;48.146;17.098;2023-12-14T03:56:04;98504.41;;;10.87
42197;BMP280;27866;48.146;17.098;2023-12-14T04:00:16;98504.41;;;10.87
42197;BMP280;27866;48.146;17.098;2023-12-14T04:04:27;98507.41;;;10.83
42197;BMP280;27866;48.146;17.098;2023-12-14T04:08:39;98514.47;;;10.81
42197;BMP280;27866;48.146;17.098;2023-12-14T04:12:51;98517.88;;;10.81
42197;BMP280;27866;48.146;17.098;2023-12-14T04:17:03;98519.94;;;10.78
42197;BMP280;27866;48.146;17.098;2023-12-14T04:21:14;98525.13;;;10.78
42197;BMP280;27866;48.146;17.098;2023-12-14T04:25:26;98533.72;;;10.78
42197;BMP280;27866;48.146;17.098;2023-12-14T04:29:37;98539.56;;;10.80
42197;BMP280;27866;48.146;17.098;2023-12-14T04:33:49;98549.66;;;10.83
42197;BMP280;27866;48.146;17.098;2023-12-14T04:38:00;98553.31;;;10.81
42197;BMP280;27866;48.146;17.098;2023-12-14T04:42:12;98550.88;;;10.79
42197;BMP280;27866;48.146;17.098;2023-12-14T04:46:23;98563.81;;;10.79
42197;BMP280;27866;48.146;17.098;2023-12-14T04:50:35;98567.38;;;10.78
42197;BMP280;27866;48.146;17.098;2023-12-14T04:54:46;98577.28;;;10.73
42197;BMP280;27866;48.146;17.098;2023-12-14T04:58:58;98582.88;;;10.69
42197;BMP280;27866;48.146;17.098;2023-12-14T05:03:09;98594.31;;;10.67
42197;BMP280;27866;48.146;17.098;2023-12-14T05:07:22;98595.13;;;10.67
42197;BMP280;27866;48.146;17.098;2023-12-14T05:11:35;98607.13;;;10.68
42197;BMP280;27866;48.146;17.098;2023-12-14T05:15:46;98609.69;;;10.68
42197;BMP280;27866;48.146;17.098;2023-12-14T05:19:59;98611.47;;;10.68
42197;BMP280;27866;48.146;17.098;2023-12-14T05:24:11;98620.59;;;10.62
42197;BMP280;27866;48.146;17.098;2023-12-14T05:28:22;98620.72;;;10.61
42197;BMP280;27866;48.146;17.098;2023-12-14T05:32:34;98627.53;;;10.62
42197;BMP280;27866;48.146;17.098;2023-12-14T05:36:45;98622.09;;;10.65
42197;BMP280;27866;48.146;17.098;2023-12-14T05:40:57;98633.56;;;10.71
42197;BMP280;27866;48.146;17.098;2023-12-14T05:45:08;98636.81;;;10.73
42197;BMP280;27866;48.146;17.098;2023-12-14T05:49:20;98645.41;;;10.74
42197;BMP280;27866;48.146;17.098;2023-12-14T05:53:32;98649.53;;;10.76
42197;BMP280;27866;48.146;17.098;2023-12-14T05:57:50;98656.75;;;10.82
42197;BMP280;27866;48.146;17.098;2023-12-14T06:02:02;98665.06;;;10.76
42197;BMP280;27866;48.146;17.098;2023-12-14T06:06:14;98661.97;;;10.91
42197;BMP280;27866;48.146;17.098;2023-12-14T06:10:25;98673.16;;;11.01
42197;BMP280;27866;48.146;17.098;2023-12-14T06:14:37;98672.50;;;11.08
42197;BMP280;27866;48.146;17.098;2023-12-14T06:18:49;98686.53;;;11.15
42197;BMP280;27866;48.146;17.098;2023-12-14T06:23:00;98685.59;;;11.16
42197;BMP280;27866;48.146;17.098;2023-12-14T06:27:12;98698.28;;;11.19
42197;BMP280;27866;48.146;17.098;2023-12-14T06:31:23;98703.94;;;11.24
42197;BMP280;27866;48.146;17.098;2023-12-14T06:35:35;98706.09;;;11.28
42197;BMP280;27866;48.146;17.098;2023-12-14T06:39:46;98716.75;;;11.34
42197;BMP280;27866;48.146;17.098;2023-12-14T06:43:58;98718.69;;;11.42
42197;BMP280;27866;48.146;17.098;2023-12-14T06:48:09;98730.56;;;11.44
42197;BMP280;27866;48.146;17.098;2023-12-14T06:52:21;98737.38;;;11.45
42197;BMP280;27866;48.146;17.098;2023-12-14T06:56:33;98749.38;;;11.46
42197;BMP280;27866;48.146;17.098;2023-12-14T07:00:44;98756.78;;;11.50
42197;BMP280;27866;48.146;17.098;2023-12-14T07:04:56;98770.69;;;11.58
42197;BMP280;27866;48.146;17.098;2023-12-14T07:09:07;98779.69;;;11.64
42197;BMP280;27866;48.146;17.098;2023-12-14T07:13:19;98792.13;;;11.70
42197;BMP280;27866;48.146;17.098;2023-12-14T07:17:30;98798.28;;;11.78
42197;BMP280;27866;48.146;17.098;2023-12-14T07:21:42;98809.75;;;11.85
42197;BMP280;27866;48.146;17.098;2023-12-14T07:25:53;98819.06;;;11.96
42197;BMP280;27866;48.146;17.098;2023-12-14T07:30:05;98830.25;;;12.06
42197;BMP280;27866;48.146;17.098;2023-12-14T07:34:17;98829.59;;;12.13
42197;BMP280;27866;48.146;17.098;2023-12-14T07:38:29;98839.56;;;12.17
42197;BMP280;27866;48.146;17.098;2023-12-14T07:42:41;98841.88;;;12.20
42197;BMP280;27866;48.146;17.098;2023-12-14T07:46:53;98844.22;;;12.23
42197;BMP280;27866;48.146;17.098;2023-12-14T07:51:04;98846.53;;;12.26
42197;BMP280;27866;48.146;17.098;2023-12-14T07:55:16;98857.88;;;12.25
42197;BMP280;27866;48.146;17.098;2023-12-14T07:59:28;98859.63;;;12.34
42197;BMP280;27866;48.146;17.098;2023-12-14T08:03:41;98875.66;;;12.39
42197;BMP280;27866;48.146;17.098;2023-12-14T08:07:52;98863.88;;;12.44
42197;BMP280;27866;48.146;17.098;2023-12-14T08:12:05;98867.16;;;12.46
42197;BMP280;27866;48.146;17.098;2023-12-14T08:16:17;98876.19;;;12.42
42197;BMP280;27866;48.146;17.098;2023-12-14T08:20:29;98890.00;;;12.43
42197;BMP280;27866;48.146;17.098;2023-12-14T08:24:41;98901.06;;;12.45
42197;BMP280;27866;48.146;17.098;2023-12-14T08:28:52;98900.78;;;12.47
42197;BMP280;27866;48.146;17.098;2023-12-14T08:33:04;98894.75;;;12.47
42197;BMP280;27866;48.146;17.098;2023-12-14T08:37:15;98902.16;;;12.51
42197;BMP280;27866;48.146;17.098;2023-12-14T08:41:27;98905.47;;;12.53
42197;BMP280;27866;48.146;17.098;2023-12-14T08:45:39;98920.50;;;12.59
42197;BMP280;27866;48.146;17.098;2023-12-14T08:49:50;98922.69;;;12.63
42197;BMP280;27866;48.146;17.098;2023-12-14T08:54:02;98922.94;;;12.70
42197;BMP280;27866;48.146;17.098;2023-12-14T08:58:13;98930.88;;;12.77
42197;BMP280;27866;48.146;17.098;2023-12-14T09:02:25;98925.66;;;12.87
42197;BMP280;27866;48.146;17.098;2023-12-14T09:06:37;98924.03;;;12.95
42197;BMP280;27866;48.146;17.098;2023-12-14T09:10:48;98926.47;;;13.05
42197;BMP280;27866;48.146;17.098;2023-12-14T09:15:00;98922.53;;;13.11
42197;BMP280;27866;48.146;17.098;2023-12-14T09:19:12;98936.44;;;13.19
42197;BMP280;27866;48.146;17.098;2023-12-14T09:23:24;98936.31;;;13.30
42197;BMP280;27866;48.146;17.098;2023-12-14T09:27:35;98936.00;;;13.32
42197;BMP280;27866;48.146;17.098;2023-12-14T09:31:47;98944.91;;;13.39
42197;BMP280;27866;48.146;17.098;2023-12-14T09:35:59;98957.47;;;13.44
42197;BMP280;27866;48.146;17.098;2023-12-14T09:40:10;98955.50;;;13.55
42197;BMP280;27866;48.146;17.098;2023-12-14T09:44:23;98957.28;;;13.63
42197;BMP280;27866;48.146;17.098;2023-12-14T09:48:35;98948.91;;;13.69
42197;BMP280;27866;48.146;17.098;2023-12-14T09:52:47;98958.75;;;13.84
42197;BMP280;27866;48.146;17.098;2023-12-14T09:57:00;98956.09;;;13.93
42197;BMP280;27866;48.146;17.098;2023-12-14T10:01:22;98967.50;;;14.09
42197;BMP280;27866;48.146;17.098;2023-12-14T10:05:36;98966.34;;;14.21
42197;BMP280;27866;48.146;17.098;2023-12-14T10:09:48;98975.66;;;14.23
42197;BMP280;27866;48.146;17.098;2023-12-14T10:13:59;98965.00;;;14.43
42197;BMP280;27866;48.146;17.098;2023-12-14T10:18:11;98965.06;;;14.51
42197;BMP280;27866;48.146;17.098;2023-12-14T10:22:23;98966.38;;;14.64
42197;BMP280;27866;48.146;17.098;2023-12-14T10:26:37;98976.84;;;14.72
42197;BMP280;27866;48.146;17.098;2023-12-14T10:30:51;98982.28;;;14.61
42197;BMP280;27866;48.146;17.098;2023-12-14T10:35:03;98979.84;;;14.60
42197;BMP280;27866;48.146;17.098;2023-12-14T10:39:15;98985.19;;;14.58
42197;BMP280;27866;48.146;17.098;2023-12-14T10:43:27;98993.69;;;14.60
42197;BMP280;27866;48.146;17.098;2023-12-14T10:47:43;99005.38;;;14.56
42197;BMP280;27866;48.146;17.098;2023-12-14T10:51:57;99016.38;;;14.50
42197;BMP280;27866;48.146;17.098;2023-12-14T10:56:10;99023.03;;;14.62
42197;BMP280;27866;48.146;17.098;2023-12-14T11:00:23;99029.06;;;14.79
42197;BMP280;27866;48.146;17.098;2023-12-14T11:04:58;99042.00;;;14.72
42197;BMP280;27866;48.146;17.098;2023-12-14T11:09:11;99044.03;;;14.77
42197;BMP280;27866;48.146;17.098;2023-12-14T11:13:25;99061.75;;;14.48
42197;BMP280;27866;48.146;17.098;2023-12-14T11:17:38;99063.16;;;14.43
42197;BMP280;27866;48.146;17.098;2023-12-14T11:26:15;99055.97;;;14.54
42197;BMP280;27866;48.146;17.098;2023-12-14T11:30:32;99063.06;;;14.61
42197;BMP280;27866;48.146;17.098;2023-12-14T11:34:46;99066.75;;;14.59
42197;BMP280;27866;48.146;17.098;2023-12-14T11:38:58;99073.53;;;14.52
42197;BMP280;27866;48.146;17.098;2023-12-14T11:43:10;99066.91;;;14.57
42197;BMP280;27866;48.146;17.098;2023-12-14T11:47:21;99071.44;;;14.55
42197;BMP280;27866;48.146;17.098;2023-12-14T11:51:34;99075.31;;;14.51
42197;BMP280;27866;48.146;17.098;2023-12-14T11:55:45;99080.25;;;14.54
42197;BMP280;27866;48.146;17.098;2023-12-14T11:59:59;99076.09;;;14.61
42197;BMP280;27866;48.146;17.098;2023-12-14T12:04:10;99077.66;;;14.45
42197;BMP280;27866;48.146;17.098;2023-12-14T12:08:22;99082.28;;;14.25
42197;BMP280;27866;48.146;17.098;2023-12-14T12:12:36;99071.94;;;14.06
42197;BMP280;27866;48.146;17.098;2023-12-14T12:16:48;99083.31;;;13.96
42197;BMP280;27866;48.146;17.098;2023-12-14T12:21:01;99088.69;;;13.86
42197;BMP280;27866;48.146;17.098;2023-12-14T12:25:17;99090.22;;;13.79
42197;BMP280;27866;48.146;17.098;2023-12-14T12:29:28;99093.63;;;13.70
42197;BMP280;27866;48.146;17.098;2023-12-14T12:33:40;99099.66;;;13.62
42197;BMP280;27866;48.146;17.098;2023-12-14T12:37:52;99096.63;;;13.57
42197;BMP280;27866;48.146;17.098;2023-12-14T12:42:06;99096.63;;;13.57
42197;BMP280;27866;48.146;17.098;2023-12-14T12:46:18;99102.53;;;13.59
42197;BMP280;27866;48.146;17.098;2023-12-14T12:50:30;99108.97;;;13.55
42197;BMP280;27866;48.146;17.098;2023-12-14T12:54:41;99119.66;;;13.52
42197;BMP280;27866;48.146;17.098;2023-12-14T12:58:53;99115.00;;;13.46
42197;BMP280;27866;48.146;17.098;2023-12-14T13:03:05;99132.53;;;13.44
42197;BMP280;27866;48.146;17.098;2023-12-14T13:07:17;99150.31;;;13.39
42197;BMP280;27866;48.146;17.098;2023-12-14T13:11:29;99155.22;;;13.33
42197;BMP280;27866;48.146;17.098;2023-12-14T13:15:41;99167.69;;;13.39
42197;BMP280;27866;48.146;17.098;2023-12-14T13:19:53;99179.03;;;13.47
42197;BMP280;27866;48.146;17.098;2023-12-14T13:24:05;99181.09;;;13.53
42197;BMP280;27866;48.146;17.098;2023-12-14T13:28:16;99177.41;;;13.55
42197;BMP280;27866;48.146;17.098;2023-12-14T13:32:28;99193.16;;;13.54
42197;BMP280;27866;48.146;17.098;2023-12-14T13:36:40;99189.44;;;13.47
42197;BMP280;27866;48.146;17.098;2023-12-14T13:40:51;99191.50;;;13.34
42197;BMP280;27866;48.146;17.098;2023-12-14T13:45:03;99211.88;;;13.30
42197;BMP280;27866;48.146;17.098;2023-12-14T13:49:16;99221.16;;;13.23
42197;BMP280;27866;48.146;17.098;2023-12-14T13:53:28;99228.38;;;13.10
42197;BMP280;27866;48.146;17.098;2023-12-14T13:57:39;99244.50;;;13.04
42197;BMP280;27866;48.146;17.098;2023-12-14T14:01:51;99252.69;;;13.00
42197;BMP280;27866;48.146;17.098;2023-12-14T14:06:03;99258.28;;;12.96
42197;BMP280;27866;48.146;17.098;2023-12-14T14:10:14;99278.41;;;12.94
42197;BMP280;27866;48.146;17.098;2023-12-14T14:14:26;99298.59;;;12.90
42197;BMP280;27866;48.146;17.098;2023-12-14T14:18:37;99303.38;;;12.86
42197;BMP280;27866;48.146;17.098;2023-12-14T14:22:49;99323.31;;;12.85
42197;BMP280;27866;48.146;17.098;2023-12-14T14:27:01;99317.63;;;12.91
42197;BMP280;27866;48.146;17.098;2023-12-14T14:31:12;99336.69;;;13.01
42197;BMP280;27866;48.146;17.098;2023-12-14T14:35:24;99345.78;;;13.15
42197;BMP280;27866;48.146;17.098;2023-12-14T14:39:36;99358.00;;;13.24
42197;BMP280;27866;48.146;17.098;2023-12-14T14:43:50;99364.31;;;13.31
42197;BMP280;27866;48.146;17.098;2023-12-14T14:48:02;99364.59;;;13.28
42197;BMP280;27866;48.146;17.098;2023-12-14T14:52:13;99375.41;;;13.32
42197;BMP280;27866;48.146;17.098;2023-12-14T14:56:26;99380.38;;;13.35
42197;BMP280;27866;48.146;17.098;2023-12-14T15:00:38;99389.28;;;13.42
42197;BMP280;27866;48.146;17.098;2023-12-14T15:04:50;99396.72;;;13.47
42197;BMP280;27866;48.146;17.098;2023-12-14T15:09:01;99395.88;;;13.46
42197;BMP280;27866;48.146;17.098;2023-12-14T15:13:13;99405.22;;;13.48
42197;BMP280;27866;48.146;17.098;2023-12-14T15:17:26;99405.75;;;13.52
42197;BMP280;27866;48.146;17.098;2023-12-14T15:21:38;99410.28;;;13.50
42197;BMP280;27866;48.146;17.098;2023-12-14T15:25:49;99425.88;;;13.50
42197;BMP280;27866;48.146;17.098;2023-12-14T15:30:01;99426.31;;;13.55
42197;BMP280;27866;48.146;17.098;2023-12-14T15:34:16;99422.44;;;13.49
42197;BMP280;27866;48.146;17.098;2023-12-14T15:38:29;99441.34;;;13.51
42197;BMP280;27866;48.146;17.098;2023-12-14T15:42:41;99437.72;;;13.63
42197;BMP280;27866;48.146;17.098;2023-12-14T15:46:54;99455.25;;;13.70
42197;BMP280;27866;48.146;17.098;2023-12-14T15:51:06;99460.59;;;13.69
42197;BMP280;27866;48.146;17.098;2023-12-14T15:55:18;99465.53;;;13.72
42197;BMP280;27866;48.146;17.098;2023-12-14T15:59:30;99466.75;;;13.68
42197;BMP280;27866;48.146;17.098;2023-12-14T16:03:43;99467.16;;;13.63
42197;BMP280;27866;48.146;17.098;2023-12-14T16:07:55;99472.19;;;13.56
42197;BMP280;27866;48.146;17.098;2023-12-14T16:12:07;99482.72;;;13.54
42197;BMP280;27866;48.146;17.098;2023-12-14T16:16:19;99478.97;;;13.47
42197;BMP280;27866;48.146;17.098;2023-12-14T16:20:30;99489.31;;;13.38
42197;BMP280;27866;48.146;17.098;2023-12-14T16:24:42;99490.41;;;13.36
42197;BMP280;27866;48.146;17.098;2023-12-14T16:28:54;99500.94;;;13.34
42197;BMP280;27866;48.146;17.098;2023-12-14T16:33:07;99511.84;;;13.29
42197;BMP280;27866;48.146;17.098;2023-12-14T16:37:19;99511.22;;;13.16
42197;BMP280;27866;48.146;17.098;2023-12-14T16:41:31;99517.66;;;13.02
42197;BMP280;27866;48.146;17.098;2023-12-14T16:45:43;99520.06;;;12.94
42197;BMP280;27866;48.146;17.098;2023-12-14T16:49:54;99535.69;;;12.83
42197;BMP280;27866;48.146;17.098;2023-12-14T16:54:06;99537.28;;;12.64
42197;BMP280;27866;48.146;17.098;2023-12-14T16:58:17;99548.28;;;12.46
42197;BMP280;27866;48.146;17.098;2023-12-14T17:02:29;99549.56;;;12.41
42197;BMP280;27866;48.146;17.098;2023-12-14T17:06:43;99566.94;;;12.41
42197;BMP280;27866;48.146;17.098;2023-12-14T17:10:56;99569.06;;;12.46
42197;BMP280;27866;48.146;17.098;2023-12-14T17:15:08;99575.44;;;12.53
42197;BMP280;27866;48.146;17.098;2023-12-14T17:19:22;99578.22;;;12.72
42197;BMP280;27866;48.146;17.098;2023-12-14T17:23:34;99585.88;;;12.84
42197;BMP280;27866;48.146;17.098;2023-12-14T17:27:45;99587.75;;;12.92
42197;BMP280;27866;48.146;17.098;2023-12-14T17:31:58;99604.75;;;12.96
42197;BMP280;27866;48.146;17.098;2023-12-14T17:36:10;99608.75;;;13.00
42197;BMP280;27866;48.146;17.098;2023-12-14T17:40:22;99613.44;;;13.06
42197;BMP280;27866;48.146;17.098;2023-12-14T17:44:33;99622.53;;;13.11
42197;BMP280;27866;48.146;17.098;2023-12-14T17:48:45;99620.63;;;13.13
42197;BMP280;27866;48.146;17.098;2023-12-14T17:52:56;99614.63;;;13.13
42197;BMP280;27866;48.146;17.098;2023-12-14T17:57:10;99625.03;;;13.13
42197;BMP280;27866;48.146;17.098;2023-12-14T18:01:22;99632.69;;;13.14
42197;BMP280;27866;48.146;17.098;2023-12-14T18:05:34;99642.25;;;13.14
42197;BMP280;27866;48.146;17.098;2023-12-14T18:09:45;99644.72;;;13.15
42197;BMP280;27866;48.146;17.098;2023-12-14T18:13:57;99655.38;;;13.12
42197;BMP280;27866;48.146;17.098;2023-12-14T18:18:08;99659.88;;;13.10
42197;BMP280;27866;48.146;17.098;2023-12-14T18:22:21;99667.22;;;13.05
42197;BMP280;27866;48.146;17.098;2023-12-14T18:26:32;99674.44;;;13.02
42197;BMP280;27866;48.146;17.098;2023-12-14T18:30:44;99677.16;;;13.01
42197;BMP280;27866;48.146;17.098;2023-12-14T18:34:56;99687.09;;;12.96
42197;BMP280;27866;48.146;17.098;2023-12-14T18:39:07;99684.72;;;12.93
42197;BMP280;27866;48.146;17.098;2023-12-14T18:43:19;99703.50;;;12.96
42197;BMP280;27866;48.146;17.098;2023-12-14T18:47:30;99709.41;;;12.98
42197;BMP280;27866;48.146;17.098;2023-12-14T18:51:42;99716.97;;;13.01
42197;BMP280;27866;48.146;17.098;2023-12-14T18:55:54;99730.31;;;12.97
42197;BMP280;27866;48.146;17.098;2023-12-14T19:00:06;99734.34;;;13.01
42197;BMP280;27866;48.146;17.098;2023-12-14T19:04:18;99749.94;;;13.01
42197;BMP280;27866;48.146;17.098;2023-12-14T19:08:30;99754.88;;;13.03
42197;BMP280;27866;48.146;17.098;2023-12-14T19:12:42;99753.25;;;13.03
42197;BMP280;27866;48.146;17.098;2023-12-14T19:16:53;99772.16;;;13.04
42197;BMP280;27866;48.146;17.098;2023-12-14T19:21:06;99774.50;;;13.07
42197;BMP280;27866;48.146;17.098;2023-12-14T19:25:19;99783.25;;;13.06
42197;BMP280;27866;48.146;17.098;2023-12-14T19:29:30;99783.47;;;13.03
42197;BMP280;27866;48.146;17.098;2023-12-14T19:33:43;99783.97;;;13.08
42197;BMP280;27866;48.146;17.098;2023-12-14T19:37:54;99792.09;;;13.04
42197;BMP280;27866;48.146;17.098;2023-12-14T19:42:06;99796.47;;;13.03
42197;BMP280;27866;48.146;17.098;2023-12-14T19:46:18;99794.47;;;12.96
42197;BMP280;27866;48.146;17.098;2023-12-14T19:50:29;99802.38;;;12.95
42197;BMP280;27866;48.146;17.098;2023-12-14T19:54:41;99805.34;;;12.90
42197;BMP280;27866;48.146;17.098;2023-12-14T19:58:56;99816.09;;;12.86
42197;BMP280;27866;48.146;17.098;2023-12-14T20:03:07;99817.75;;;12.87
42197;BMP280;27866;48.146;17.098;2023-12-14T20:07:21;99820.69;;;12.72
42197;BMP280;27866;48.146;17.098;2023-12-14T20:11:34;99829.56;;;12.80
42197;BMP280;27866;48.146;17.098;2023-12-14T20:15:45;99827.66;;;12.82
42197;BMP280;27866;48.146;17.098;2023-12-14T20:19:57;99829.78;;;12.77
42197;BMP280;27866;48.146;17.098;2023-12-14T20:24:08;99840.16;;;12.77
42197;BMP280;27866;48.146;17.098;2023-12-14T20:28:20;99849.38;;;12.81
42197;BMP280;27866;48.146;17.098;2023-12-14T20:32:32;99850.94;;;12.84
42197;BMP280;27866;48.146;17.098;2023-12-14T20:36:44;99852.00;;;12.81
42197;BMP280;27866;48.146;17.098;2023-12-14T20:40:55;99869.25;;;12.82
42197;BMP280;27866;48.146;17.098;2023-12-14T20:45:08;99874.66;;;12.79
42197;BMP280;27866;48.146;17.098;2023-12-14T20:49:19;99888.16;;;12.84
42197;BMP280;27866;48.146;17.098;2023-12-14T20:53:33;99889.66;;;12.87
42197;BMP280;27866;48.146;17.098;2023-12-14T20:57:45;99886.97;;;12.88
42197;BMP280;27866;48.146;17.098;2023-12-14T21:01:56;99895.50;;;12.90
42197;BMP280;27866;48.146;17.098;2023-12-14T21:06:08;99899.97;;;12.88
42197;BMP280;27866;48.146;17.098;2023-12-14T21:10:20;99909.19;;;12.92
42197;BMP280;27866;48.146;17.098;2023-12-14T21:14:32;99910.84;;;12.93
42197;BMP280;27866;48.146;17.098;2023-12-14T21:18:45;99920.31;;;12.94
42197;BMP280;27866;48.146;17.098;2023-12-14T21:22:57;99926.22;;;12.96
42197;BMP280;27866;48.146;17.098;2023-12-14T21:27:10;99921.94;;;12.95
42197;BMP280;27866;48.146;17.098;2023-12-14T21:31:40;99922.06;;;12.93
42197;BMP280;27866;48.146;17.098;2023-12-14T21:35:52;99939.22;;;12.96
42197;BMP280;27866;48.146;17.098;2023-12-14T21:40:04;99932.34;;;12.95
42197;BMP280;27866;48.146;17.098;2023-12-14T21:44:16;99940.84;;;12.97
42197;BMP280;27866;48.146;17.098;2023-12-14T21:48:28;99941.69;;;12.97
42197;BMP280;27866;48.146;17.098;2023-12-14T21:52:39;99949.84;;;13.03
42197;BMP280;27866;48.146;17.098;2023-12-14T21:56:51;99959.06;;;13.07
42197;BMP280;27866;48.146;17.098;2023-12-14T22:01:03;99957.19;;;13.09
42197;BMP280;27866;48.146;17.098;2023-12-14T22:05:15;99963.81;;;13.13
42197;BMP280;27866;48.146;17.098;2023-12-14T22:09:26;99954.25;;;13.14
42197;BMP280;27866;48.146;17.098;2023-12-14T22:13:38;99969.97;;;13.12
42197;BMP280;27866;48.146;17.098;2023-12-14T22:17:49;99973.28;;;13.14
42197;BMP280;27866;48.146;17.098;2023-12-14T22:22:02;99994.09;;;13.14
42197;BMP280;27866;48.146;17.098;2023-12-14T22:26:14;99990.19;;;13.19
42197;BMP280;27866;48.146;17.098;2023-12-14T22:30:25;99990.78;;;13.23
42197;BMP280;27866;48.146;17.098;2023-12-14T22:34:37;100001.03;;;13.14
42197;BMP280;27866;48.146;17.098;2023-12-14T22:38:48;100000.91;;;13.04
42197;BMP280;27866;48.146;17.098;2023-12-14T22:43:00;100002.31;;;12.98
42197;BMP280;27866;48.146;17.098;2023-12-14T22:47:12;100003.47;;;12.94
42197;BMP280;27866;48.146;17.098;2023-12-14T22:51:24;100010.66;;;12.90
42197;BMP280;27866;48.146;17.098;2023-12-14T22:55:36;100014.78;;;12.82
42197;BMP280;27866;48.146;17.098;2023-12-14T22:59:47;100016.88;;;12.77
42197;BMP280;27866;48.146;17.098;2023-12-14T23:04:00;100028.66;;;12.71
42197;BMP280;27866;48.146;17.098;2023-12-14T23:08:12;100024.09;;;12.62
42197;BMP280;27866;48.146;17.098;2023-12-14T23:12:24;100033.69;;;12.61
42197;BMP280;27866;48.146;17.098;2023-12-14T23:16:43;100042.19;;;12.63
42197;BMP280;27866;48.146;17.098;2023-12-14T23:20:56;100048.22;;;12.64
42197;BMP280;27866;48.146;17.098;2023-12-14T23:25:07;100049.38;;;12.60
42197;BMP280;27866;48.146;17.098;2023-12-14T23:29:19;100055.03;;;12.54
42197;BMP280;27866;48.146;17.098;2023-12-14T23:33:30;100060.38;;;12.51
42197;BMP280;27866;48.146;17.098;2023-12-14T23:37:42;100063.31;;;12.59
42197;BMP280;27866;48.146;17.098;2023-12-14T23:41:54;100075.13;;;12.63
42197;BMP280;27866;48.146;17.098;2023-12-14T23:46:05;100072.66;;;12.61
42197;BMP280;27866;48.146;17.098;2023-12-14T23:50:17;100077.56;;;12.54
42197;BMP280;27866;48.146;17.098;2023-12-14T23:54:28;100078.00;;;12.36